createdAt,value
2023-02-14T00:04:10.656Z,10.67
2023-02-14T00:09:16.196Z,9.37
2023-02-14T00:14:36.055Z,6.10
2023-02-14T00:19:38.726Z,7.03
2023-02-14T00:24:42.966Z,8.97
2023-02-14T00:34:47.971Z,4.70
2023-02-14T00:39:51.886Z,4.67
2023-02-14T00:44:54.415Z,8.63
2023-02-14T00:50:02.612Z,10.10
2023-02-14T00:55:07.183Z,8.30
2023-02-14T01:05:12.159Z,5.17
2023-02-14T01:10:16.229Z,9.53
2023-02-14T01:15:18.831Z,7.75
2023-02-14T01:20:21.640Z,7.60
2023-02-14T01:25:25.712Z,7.53
2023-02-14T01:35:30.970Z,7.30
2023-02-14T01:40:34.878Z,3.23
2023-02-14T01:45:37.550Z,4.05
2023-02-14T01:50:42.703Z,4.10
2023-02-14T01:55:48.981Z,5.13
2023-02-14T02:01:01.208Z,7.70
2023-02-14T02:06:06.785Z,7.80
2023-02-14T02:11:10.599Z,4.50
2023-02-14T02:16:22.884Z,6.63
2023-02-14T02:21:46.167Z,6.00
2023-02-14T02:26:58.593Z,5.57
2023-02-14T02:32:19.409Z,4.20
2023-02-14T02:37:31.153Z,7.67
2023-02-14T02:42:39.202Z,7.37
2023-02-14T02:47:43.865Z,8.17
2023-02-14T02:53:06.394Z,6.63
2023-02-14T02:58:09.811Z,3.23
2023-02-14T03:03:30.732Z,7.03
2023-02-14T03:08:34.538Z,6.93
2023-02-14T03:13:48.860Z,7.13
2023-02-14T03:24:10.757Z,5.80
2023-02-14T03:29:17.016Z,6.33
2023-02-14T03:34:23.117Z,7.97
2023-02-14T03:39:29.004Z,5.63
2023-02-14T03:44:33.650Z,5.80
2023-02-14T03:49:38.258Z,6.40
2023-02-14T03:54:42.906Z,6.17
2023-02-14T03:59:45.635Z,5.50
2023-02-14T04:04:49.934Z,7.20
2023-02-14T04:14:56.261Z,3.40
2023-02-14T04:19:59.039Z,4.45
2023-02-14T04:25:01.670Z,5.93
2023-02-14T04:30:06.156Z,6.50
2023-02-14T04:35:09.079Z,4.10
2023-02-14T04:40:12.118Z,5.10
2023-02-14T04:45:16.081Z,2.83
2023-02-14T04:50:18.572Z,5.88
2023-02-14T04:55:21.137Z,4.73
2023-02-14T05:00:25.433Z,7.10
2023-02-14T05:05:27.946Z,6.17
2023-02-14T05:10:30.923Z,6.83
2023-02-14T05:15:36.841Z,8.20
2023-02-14T05:20:40.993Z,8.00
2023-02-14T05:25:43.800Z,10.23
2023-02-14T05:30:48.116Z,9.83
2023-02-14T05:35:50.621Z,9.10
2023-02-14T05:40:53.099Z,6.80
2023-02-14T05:45:56.969Z,7.03
2023-02-14T05:51:03.740Z,5.75
2023-02-14T05:56:06.880Z,8.10
2023-02-14T06:01:10.893Z,8.70
2023-02-14T06:06:13.466Z,8.63
2023-02-14T06:11:16.112Z,8.83
2023-02-14T06:16:20.323Z,8.73
2023-02-14T06:26:28.009Z,9.17
2023-02-14T06:31:32.214Z,9.60
2023-02-14T06:41:37.863Z,8.60
2023-02-14T06:46:42.020Z,7.80
2023-02-14T06:56:47.589Z,5.73
2023-02-14T07:01:51.621Z,5.80
2023-02-14T07:06:54.103Z,6.13
2023-02-14T07:11:56.637Z,6.03
2023-02-14T07:17:00.595Z,7.80
2023-02-14T07:22:03.356Z,6.47
2023-02-14T07:27:06.060Z,6.27
2023-02-14T07:32:10.193Z,4.73
2023-02-14T07:42:15.355Z,6.53
2023-02-14T07:47:19.307Z,5.23
2023-02-14T07:52:21.783Z,4.32
2023-02-14T07:57:24.213Z,3.43
2023-02-14T08:02:28.314Z,7.03
2023-02-14T08:07:30.769Z,7.22
2023-02-14T08:12:59.568Z,5.80
2023-02-14T08:18:03.417Z,6.40
2023-02-14T08:23:05.884Z,8.35
2023-02-14T08:28:09.001Z,5.63
2023-02-14T08:33:13.049Z,7.30
2023-02-14T08:38:18.247Z,7.25
2023-02-14T08:43:20.904Z,7.72
2023-02-14T08:48:26.827Z,7.85
2023-02-14T08:53:29.333Z,4.32
2023-02-14T08:58:32.841Z,7.13
2023-02-14T09:03:38.422Z,5.43
2023-02-14T09:08:41.789Z,7.57
2023-02-14T09:13:44.362Z,4.10
2023-02-14T09:18:48.536Z,8.15
2023-02-14T09:28:53.583Z,9.43
2023-02-14T09:33:57.297Z,8.98
2023-02-14T09:39:00.175Z,9.82
2023-02-14T09:44:04.361Z,10.43
2023-02-14T09:49:09.781Z,11.57
2023-02-14T09:54:13.592Z,12.57
2023-02-14T09:59:18.751Z,11.55
2023-02-14T10:04:29.914Z,13.57
2023-02-14T10:09:39.769Z,15.07
2023-02-14T10:14:42.255Z,15.30
2023-02-14T10:19:49.958Z,16.13
2023-02-14T10:24:54.076Z,16.13
2023-02-14T10:29:56.580Z,15.50
2023-02-14T10:35:01.960Z,15.52
2023-02-14T10:40:22.112Z,15.73
2023-02-14T10:45:27.175Z,15.07
2023-02-14T10:50:33.106Z,14.77
2023-02-14T10:55:39.917Z,12.70
2023-02-14T11:00:47.307Z,14.20
2023-02-14T11:05:51.444Z,14.20
2023-02-14T11:10:54.995Z,14.40
2023-02-14T11:16:00.143Z,12.95
2023-02-14T11:21:05.865Z,14.07
2023-02-14T11:26:11.492Z,14.15
2023-02-14T11:31:14.620Z,14.38
2023-02-14T11:36:21.710Z,13.68
2023-02-14T11:41:25.232Z,12.93
2023-02-14T11:46:30.500Z,12.60
2023-02-14T11:51:37.243Z,12.77
2023-02-14T11:56:47.514Z,11.60
2023-02-14T12:01:52.789Z,12.43
2023-02-14T12:06:57.292Z,12.50
2023-02-14T12:12:00.629Z,12.27
2023-02-14T12:17:05.601Z,12.98
2023-02-14T12:22:11.977Z,12.73
2023-02-14T12:27:20.077Z,13.07
2023-02-14T12:32:24.341Z,11.63
2023-02-14T12:37:32.475Z,12.00
2023-02-14T12:42:43.879Z,12.00
2023-02-14T12:47:53.390Z,12.07
2023-02-14T12:53:16.349Z,11.38
2023-02-14T12:58:24.909Z,10.75
2023-02-14T13:03:46.754Z,10.57
2023-02-14T13:09:01.278Z,10.60
2023-02-14T13:14:07.295Z,11.25
2023-02-14T13:19:17.465Z,11.38
2023-02-14T13:24:22.697Z,10.85
2023-02-14T13:29:27.273Z,10.50
2023-02-14T13:34:31.815Z,10.95
2023-02-14T13:39:38.720Z,9.75
2023-02-14T13:44:46.453Z,9.38
2023-02-14T13:49:51.360Z,9.35
2023-02-14T13:55:01.741Z,9.20
2023-02-14T14:00:25.356Z,9.18
2023-02-14T14:05:47.625Z,8.43
2023-02-14T14:10:53.028Z,9.02
2023-02-14T14:16:10.480Z,9.00
2023-02-14T14:21:17.471Z,8.32
2023-02-14T14:26:35.696Z,8.88
2023-02-14T14:31:38.593Z,9.27
2023-02-14T14:36:41.157Z,9.02
2023-02-14T14:41:45.843Z,8.80
2023-02-14T14:46:48.450Z,9.07
2023-02-14T14:51:51.164Z,9.13
2023-02-14T14:56:59.156Z,8.47
2023-02-14T15:02:02.604Z,10.30
2023-02-14T15:07:18.524Z,10.60
2023-02-14T15:12:41.688Z,10.90
2023-02-14T15:17:44.825Z,9.88
2023-02-14T15:22:49.131Z,11.13
2023-02-14T15:27:53.357Z,10.20
2023-02-14T15:32:56.221Z,10.45
2023-02-14T15:38:01.723Z,9.10
2023-02-14T15:43:16.243Z,8.48
2023-02-14T15:53:28.925Z,8.85
2023-02-14T15:58:33.722Z,7.63
2023-02-14T16:03:40.253Z,7.07
2023-02-14T16:08:43.571Z,7.50
2023-02-14T16:13:47.885Z,7.07
2023-02-14T16:24:14.249Z,7.10
2023-02-14T16:29:20.981Z,7.07
2023-02-14T16:34:27.463Z,8.98
2023-02-14T16:39:30.009Z,8.23
2023-02-14T16:44:36.214Z,10.25
2023-02-14T16:49:39.312Z,9.15
2023-02-14T16:54:42.288Z,8.77
2023-02-14T16:59:46.713Z,8.43
2023-02-14T17:04:49.644Z,8.05
2023-02-14T17:09:57.225Z,9.10
2023-02-14T17:15:02.896Z,8.32
2023-02-14T17:20:06.509Z,10.73
2023-02-14T17:25:09.972Z,8.38
2023-02-14T17:30:15.397Z,7.47
2023-02-14T17:35:18.452Z,7.57
2023-02-14T17:40:21.445Z,9.25
2023-02-14T17:45:25.848Z,8.82
2023-02-14T17:50:28.434Z,9.48
2023-02-14T17:55:31.001Z,11.55
2023-02-14T18:00:34.977Z,10.70
2023-02-14T18:05:37.813Z,8.30
2023-02-14T18:10:40.478Z,7.63
2023-02-14T18:15:45.652Z,7.07
2023-02-14T18:20:53.436Z,6.68
2023-02-14T18:25:57.275Z,7.75
2023-02-14T18:31:06.505Z,8.82
2023-02-14T18:36:11.820Z,5.88
2023-02-14T18:41:16.119Z,6.75
2023-02-14T18:51:23.730Z,7.68
2023-02-14T18:56:28.670Z,5.35
2023-02-14T19:01:32.510Z,7.22
2023-02-14T19:06:37.149Z,7.03
2023-02-14T19:11:39.747Z,6.70
2023-02-14T19:16:50.184Z,6.97
2023-02-14T19:21:54.339Z,5.63
2023-02-14T19:26:57.634Z,4.70
2023-02-14T19:32:00.566Z,7.17
2023-02-14T19:37:04.465Z,7.78
2023-02-14T19:42:07.053Z,6.93
2023-02-14T19:47:26.909Z,6.20
2023-02-14T19:52:33.167Z,7.17
2023-02-14T20:02:45.538Z,6.50
2023-02-14T20:07:51.781Z,5.40
2023-02-14T20:12:54.627Z,4.47
2023-02-14T20:17:57.691Z,4.93
2023-02-14T20:23:02.024Z,6.07
2023-02-14T20:33:07.839Z,5.53
2023-02-14T20:38:12.550Z,6.00
2023-02-14T20:43:15.437Z,3.70
2023-02-14T20:48:19.260Z,5.40
2023-02-14T20:53:23.825Z,5.35
2023-02-14T20:58:26.489Z,5.90
2023-02-14T21:03:32.188Z,3.47
2023-02-14T21:08:37.564Z,4.47
2023-02-14T21:13:40.717Z,4.47
2023-02-14T21:18:47.882Z,7.20
2023-02-14T21:23:52.417Z,5.67
2023-02-14T21:28:54.982Z,4.80
2023-02-14T21:33:58.357Z,4.90
2023-02-14T21:39:03.711Z,5.93
2023-02-14T21:44:06.955Z,5.80
2023-02-14T21:49:27.091Z,6.23
2023-02-14T21:54:31.068Z,5.87
2023-02-14T21:59:33.603Z,4.68
2023-02-14T22:04:36.537Z,4.53
2023-02-14T22:09:40.592Z,6.23
2023-02-14T22:14:43.512Z,4.32
2023-02-14T22:19:46.075Z,6.67
2023-02-14T22:24:50.327Z,4.60
2023-02-14T22:34:55.763Z,5.30
2023-02-14T22:39:59.926Z,3.20
2023-02-14T22:45:02.554Z,3.95
2023-02-14T22:50:05.429Z,5.37
2023-02-14T22:55:10.477Z,5.90
2023-02-14T23:00:13.803Z,5.70
2023-02-14T23:05:17.218Z,6.37
2023-02-14T23:10:21.332Z,7.03
2023-02-14T23:15:41.635Z,3.25
2023-02-14T23:21:01.897Z,5.17
2023-02-14T23:26:05.939Z,4.87
2023-02-14T23:31:08.901Z,4.40
2023-02-14T23:36:11.983Z,4.93
2023-02-14T23:41:33.820Z,5.33
2023-02-14T23:46:36.488Z,5.20
2023-02-14T23:51:39.206Z,4.60
2023-02-14T23:56:43.430Z,5.33
